sensor_id;sensor_type;location;lat;lon;timestamp;pressure;altitude;pressure_sealevel;temperature;humidity
26043;BME280;13818;52.156;5.382;2023-02-04T00:01:16;102981.97;;;8.61;100.00
26043;BME280;13818;52.156;5.382;2023-02-04T00:03:42;102989.97;;;8.66;100.00
26043;BME280;13818;52.156;5.382;2023-02-04T00:06:09;102994.41;;;8.62;100.00
26043;BME280;13818;52.156;5.382;2023-02-04T00:08:35;102994.38;;;8.64;100.00
26043;BME280;13818;52.156;5.382;2023-02-04T00:11:02;102989.97;;;8.66;100.00
26043;BME280;13818;52.156;5.382;2023-02-04T00:13:29;102994.38;;;8.64;100.00
26043;BME280;13818;52.156;5.382;2023-02-04T00:15:57;102992.63;;;8.66;100.00
26043;BME280;13818;52.156;5.382;2023-02-04T00:18:23;102997.03;;;8.69;100.00
26043;BME280;13818;52.156;5.382;2023-02-04T00:20:49;103008.56;;;8.68;100.00
26043;BME280;13818;52.156;5.382;2023-02-04T00:23:16;103015.63;;;8.70;100.00
26043;BME280;13818;52.156;5.382;2023-02-04T00:25:42;103012.94;;;8.75;100.00
26043;BME280;13818;52.156;5.382;2023-02-04T00:28:09;103002.31;;;8.73;100.00
26043;BME280;13818;52.156;5.382;2023-02-04T00:30:35;103016.47;;;8.77;100.00
26043;BME280;13818;52.156;5.382;2023-02-04T00:33:03;103018.25;;;8.83;100.00
26043;BME280;13818;52.156;5.382;2023-02-04T00:35:29;103022.75;;;8.65;100.00
26043;BME280;13818;52.156;5.382;2023-02-04T00:37:56;103025.34;;;8.76;100.00
26043;BME280;13818;52.156;5.382;2023-02-04T00:40:22;103019.16;;;8.71;100.00
26043;BME280;13818;52.156;5.382;2023-02-04T00:42:49;103020.09;;;8.65;100.00
26043;BME280;13818;52.156;5.382;2023-02-04T00:45:15;103021.84;;;8.65;100.00
26043;BME280;13818;52.156;5.382;2023-02-04T00:47:41;103022.72;;;8.70;100.00
26043;BME280;13818;52.156;5.382;2023-02-04T00:50:09;103024.50;;;8.74;100.00
26043;BME280;13818;52.156;5.382;2023-02-04T00:52:36;103026.25;;;8.72;100.00
26043;BME280;13818;52.156;5.382;2023-02-04T00:55:03;103040.44;;;8.74;100.00
26043;BME280;13818;52.156;5.382;2023-02-04T00:57:31;103030.69;;;8.70;100.00
26043;BME280;13818;52.156;5.382;2023-02-04T00:59:57;103036.00;;;8.68;100.00
26043;BME280;13818;52.156;5.382;2023-02-04T01:02:24;103038.72;;;8.53;100.00
26043;BME280;13818;52.156;5.382;2023-02-04T01:04:50;103041.38;;;8.54;100.00
26043;BME280;13818;52.156;5.382;2023-02-04T01:07:18;103032.50;;;8.52;100.00
26043;BME280;13818;52.156;5.382;2023-02-04T01:09:44;103034.28;;;8.58;100.00
26043;BME280;13818;52.156;5.382;2023-02-04T01:12:11;103041.38;;;8.45;100.00
26043;BME280;13818;52.156;5.382;2023-02-04T01:14:37;103039.59;;;8.31;100.00
26043;BME280;13818;52.156;5.382;2023-02-04T01:17:04;103046.69;;;8.36;100.00
26043;BME280;13818;52.156;5.382;2023-02-04T01:19:30;103050.25;;;8.30;100.00
26043;BME280;13818;52.156;5.382;2023-02-04T01:21:57;103053.78;;;8.27;100.00
26043;BME280;13818;52.156;5.382;2023-02-04T01:24:24;103056.44;;;8.17;100.00
26043;BME280;13818;52.156;5.382;2023-02-04T01:26:51;103060.00;;;8.19;100.00
26043;BME280;13818;52.156;5.382;2023-02-04T01:29:17;103052.91;;;8.16;100.00
26043;BME280;13818;52.156;5.382;2023-02-04T01:31:44;103064.41;;;8.23;100.00
26043;BME280;13818;52.156;5.382;2023-02-04T01:34:10;103060.00;;;8.19;100.00
26043;BME280;13818;52.156;5.382;2023-02-04T01:36:37;103067.97;;;8.11;100.00
26043;BME280;13818;52.156;5.382;2023-02-04T01:39:03;103078.59;;;8.11;100.00
26043;BME280;13818;52.156;5.382;2023-02-04T01:41:31;103076.81;;;8.05;100.00
26043;BME280;13818;52.156;5.382;2023-02-04T01:43:58;103074.16;;;8.13;100.00
26043;BME280;13818;52.156;5.382;2023-02-04T01:46:24;103082.13;;;8.13;100.00
26043;BME280;13818;52.156;5.382;2023-02-04T01:48:51;103083.91;;;8.11;100.00
26043;BME280;13818;52.156;5.382;2023-02-04T01:51:24;103095.41;;;8.04;100.00
26043;BME280;13818;52.156;5.382;2023-02-04T01:53:52;103098.06;;;8.05;100.00
26043;BME280;13818;52.156;5.382;2023-02-04T01:56:21;103101.63;;;8.03;100.00
26043;BME280;13818;52.156;5.382;2023-02-04T01:58:49;103112.25;;;8.00;100.00
26043;BME280;13818;52.156;5.382;2023-02-04T02:01:33;103117.56;;;8.00;100.00
26043;BME280;13818;52.156;5.382;2023-02-04T02:04:00;103108.72;;;8.01;100.00
26043;BME280;13818;52.156;5.382;2023-02-04T02:06:27;103128.19;;;7.98;100.00
26043;BME280;13818;52.156;5.382;2023-02-04T02:08:54;103111.34;;;8.04;100.00
26043;BME280;13818;52.156;5.382;2023-02-04T02:11:22;103118.44;;;8.03;100.00
26043;BME280;13818;52.156;5.382;2023-02-04T02:13:50;103126.41;;;7.91;100.00
26043;BME280;13818;52.156;5.382;2023-02-04T02:16:16;103126.41;;;7.89;100.00
26043;BME280;13818;52.156;5.382;2023-02-04T02:18:43;103114.91;;;7.92;100.00
26043;BME280;13818;52.156;5.382;2023-02-04T02:21:12;103125.50;;;7.93;100.00
26043;BME280;13818;52.156;5.382;2023-02-04T02:23:46;103115.78;;;7.91;100.00
26043;BME280;13818;52.156;5.382;2023-02-04T02:26:14;103114.00;;;7.91;100.00
26043;BME280;13818;52.156;5.382;2023-02-04T02:28:42;103125.50;;;7.90;100.00
26043;BME280;13818;52.156;5.382;2023-02-04T02:31:08;103122.84;;;7.90;100.00
26043;BME280;13818;52.156;5.382;2023-02-04T02:33:35;103128.16;;;7.89;100.00
26043;BME280;13818;52.156;5.382;2023-02-04T02:36:02;103135.25;;;7.97;100.00
26043;BME280;13818;52.156;5.382;2023-02-04T02:38:30;103124.63;;;7.96;100.00
26043;BME280;13818;52.156;5.382;2023-02-04T02:40:58;103129.03;;;7.95;100.00
26043;BME280;13818;52.156;5.382;2023-02-04T02:43:26;103128.19;;;7.92;100.00
26043;BME280;13818;52.156;5.382;2023-02-04T02:45:53;103119.28;;;7.85;100.00
26043;BME280;13818;52.156;5.382;2023-02-04T02:48:22;103119.28;;;7.74;100.00
26043;BME280;13818;52.156;5.382;2023-02-04T02:50:48;103121.94;;;7.77;100.00
26043;BME280;13818;52.156;5.382;2023-02-04T02:53:17;103121.06;;;7.71;100.00
26043;BME280;13818;52.156;5.382;2023-02-04T02:55:44;103127.25;;;7.79;100.00
26043;BME280;13818;52.156;5.382;2023-02-04T02:58:15;103127.25;;;7.77;100.00
26043;BME280;13818;52.156;5.382;2023-02-04T03:00:43;103120.16;;;7.72;100.00
26043;BME280;13818;52.156;5.382;2023-02-04T03:03:12;103119.25;;;7.73;100.00
26043;BME280;13818;52.156;5.382;2023-02-04T03:05:44;103121.06;;;7.77;100.00
26043;BME280;13818;52.156;5.382;2023-02-04T03:08:13;103123.69;;;7.72;100.00
26043;BME280;13818;52.156;5.382;2023-02-04T03:10:41;103129.00;;;7.68;100.00
26043;BME280;13818;52.156;5.382;2023-02-04T03:13:08;103134.28;;;7.60;100.00
26043;BME280;13818;52.156;5.382;2023-02-04T03:15:37;103139.56;;;7.51;100.00
26043;BME280;13818;52.156;5.382;2023-02-04T03:18:03;103139.56;;;7.51;100.00
26043;BME280;13818;52.156;5.382;2023-02-04T03:20:31;103136.00;;;7.50;100.00
26043;BME280;13818;52.156;5.382;2023-02-04T03:22:58;103138.69;;;7.53;100.00
26043;BME280;13818;52.156;5.382;2023-02-04T03:25:25;103139.56;;;7.51;100.00
26043;BME280;13818;52.156;5.382;2023-02-04T03:27:53;103145.75;;;7.51;100.00
26043;BME280;13818;52.156;5.382;2023-02-04T03:30:20;103141.31;;;7.50;100.00
26043;BME280;13818;52.156;5.382;2023-02-04T03:32:48;103148.41;;;7.49;100.00
26043;BME280;13818;52.156;5.382;2023-02-04T03:35:14;103149.34;;;7.59;100.00
26043;BME280;13818;52.156;5.382;2023-02-04T03:37:41;103144.91;;;7.61;100.00
26043;BME280;13818;52.156;5.382;2023-02-04T03:40:09;103142.28;;;7.63;100.00
26043;BME280;13818;52.156;5.382;2023-02-04T03:42:35;103150.22;;;7.60;100.00
26043;BME280;13818;52.156;5.382;2023-02-04T03:45:02;103155.53;;;7.63;100.00
26043;BME280;13818;52.156;5.382;2023-02-04T03:47:29;103151.97;;;7.61;100.00
26043;BME280;13818;52.156;5.382;2023-02-04T03:49:57;103147.56;;;7.58;100.00
26043;BME280;13818;52.156;5.382;2023-02-04T03:52:23;103152.88;;;7.58;100.00
26043;BME280;13818;52.156;5.382;2023-02-04T03:54:50;103153.75;;;7.59;100.00
26043;BME280;13818;52.156;5.382;2023-02-04T03:57:16;103158.16;;;7.61;100.00
26043;BME280;13818;52.156;5.382;2023-02-04T03:59:43;103153.75;;;7.60;100.00
26043;BME280;13818;52.156;5.382;2023-02-04T04:02:09;103156.41;;;7.63;100.00
26043;BME280;13818;52.156;5.382;2023-02-04T04:04:36;103151.09;;;7.56;100.00
26043;BME280;13818;52.156;5.382;2023-02-04T04:07:04;103149.28;;;7.45;100.00
26043;BME280;13818;52.156;5.382;2023-02-04T04:09:31;103149.25;;;7.39;100.00
26043;BME280;13818;52.156;5.382;2023-02-04T04:11:57;103147.47;;;7.37;100.00
26043;BME280;13818;52.156;5.382;2023-02-04T04:14:24;103151.91;;;7.41;100.00
26043;BME280;13818;52.156;5.382;2023-02-04T04:16:50;103157.22;;;7.39;100.00
26043;BME280;13818;52.156;5.382;2023-02-04T04:19:16;103163.44;;;7.43;100.00
26043;BME280;13818;52.156;5.382;2023-02-04T04:21:43;103164.28;;;7.37;100.00
26043;BME280;13818;52.156;5.382;2023-02-04T04:24:11;103158.13;;;7.43;100.00
26043;BME280;13818;52.156;5.382;2023-02-04T04:26:37;103158.97;;;7.39;100.00
26043;BME280;13818;52.156;5.382;2023-02-04T04:29:03;103157.22;;;7.42;100.00
26043;BME280;13818;52.156;5.382;2023-02-04T04:31:30;103164.28;;;7.37;100.00
26043;BME280;13818;52.156;5.382;2023-02-04T04:33:56;103169.63;;;7.43;100.00
26043;BME280;13818;52.156;5.382;2023-02-04T04:36:23;103168.75;;;7.44;100.00
26043;BME280;13818;52.156;5.382;2023-02-04T04:38:49;103171.38;;;7.38;100.00
26043;BME280;13818;52.156;5.382;2023-02-04T04:41:17;103172.28;;;7.49;100.00
26043;BME280;13818;52.156;5.382;2023-02-04T04:43:43;103181.13;;;7.47;100.00
26043;BME280;13818;52.156;5.382;2023-02-04T04:46:10;103176.69;;;7.47;100.00
26043;BME280;13818;52.156;5.382;2023-02-04T04:48:36;103177.56;;;7.42;100.00
26043;BME280;13818;52.156;5.382;2023-02-04T04:51:03;103179.31;;;7.38;100.00
26043;BME280;13818;52.156;5.382;2023-02-04T04:53:29;103185.47;;;7.31;100.00
26043;BME280;13818;52.156;5.382;2023-02-04T04:55:56;103183.72;;;7.36;100.00
26043;BME280;13818;52.156;5.382;2023-02-04T04:58:24;103188.16;;;7.39;100.00
26043;BME280;13818;52.156;5.382;2023-02-04T05:00:51;103184.63;;;7.38;100.00
26043;BME280;13818;52.156;5.382;2023-02-04T05:03:17;103170.50;;;7.41;100.00
26043;BME280;13818;52.156;5.382;2023-02-04T05:05:43;103177.56;;;7.42;100.00
26043;BME280;13818;52.156;5.382;2023-02-04T05:08:10;103171.31;;;7.29;100.00
26043;BME280;13818;52.156;5.382;2023-02-04T05:10:41;103175.69;;;7.22;100.00
26043;BME280;13818;52.156;5.382;2023-02-04T05:13:08;103177.53;;;7.32;100.00
26043;BME280;13818;52.156;5.382;2023-02-04T05:15:36;103180.16;;;7.31;100.00
26043;BME280;13818;52.156;5.382;2023-02-04T05:18:02;103176.63;;;7.33;100.00
26043;BME280;13818;52.156;5.382;2023-02-04T05:20:29;103190.75;;;7.25;100.00
26043;BME280;13818;52.156;5.382;2023-02-04T05:22:56;103188.13;;;7.26;100.00
26043;BME280;13818;52.156;5.382;2023-02-04T05:25:25;103187.25;;;7.30;100.00
26043;BME280;13818;52.156;5.382;2023-02-04T05:27:52;103190.78;;;7.28;100.00
26043;BME280;13818;52.156;5.382;2023-02-04T05:30:18;103188.88;;;7.08;100.00
26043;BME280;13818;52.156;5.382;2023-02-04T05:32:46;103196.91;;;7.21;100.00
26043;BME280;13818;52.156;5.382;2023-02-04T05:35:12;103194.25;;;7.19;100.00
26043;BME280;13818;52.156;5.382;2023-02-04T05:37:39;103190.69;;;7.17;100.00
26043;BME280;13818;52.156;5.382;2023-02-04T05:40:08;103186.34;;;7.25;100.00
26043;BME280;13818;52.156;5.382;2023-02-04T05:42:34;103190.78;;;7.31;100.00
26043;BME280;13818;52.156;5.382;2023-02-04T05:45:00;103192.56;;;7.30;100.00
26043;BME280;13818;52.156;5.382;2023-02-04T05:47:27;103199.63;;;7.36;100.00
26043;BME280;13818;52.156;5.382;2023-02-04T05:49:55;103185.47;;;7.31;100.00
26043;BME280;13818;52.156;5.382;2023-02-04T05:52:21;103181.06;;;7.31;100.00
26043;BME280;13818;52.156;5.382;2023-02-04T05:54:47;103192.56;;;7.29;100.00
26043;BME280;13818;52.156;5.382;2023-02-04T05:57:14;103202.34;;;7.38;100.00
26043;BME280;13818;52.156;5.382;2023-02-04T05:59:40;103203.19;;;7.40;100.00
26043;BME280;13818;52.156;5.382;2023-02-04T06:02:07;103203.25;;;7.43;100.00
26043;BME280;13818;52.156;5.382;2023-02-04T06:04:33;103197.94;;;7.46;100.00
26043;BME280;13818;52.156;5.382;2023-02-04T06:07:01;103210.34;;;7.52;100.00
26043;BME280;13818;52.156;5.382;2023-02-04T06:09:28;103216.50;;;7.43;100.00
26043;BME280;13818;52.156;5.382;2023-02-04T06:11:54;103218.28;;;7.44;100.00
26043;BME280;13818;52.156;5.382;2023-02-04T06:14:21;103226.22;;;7.42;100.00
26043;BME280;13818;52.156;5.382;2023-02-04T06:16:48;103228.91;;;7.47;100.00
26043;BME280;13818;52.156;5.382;2023-02-04T06:19:14;103228.81;;;7.33;100.00
26043;BME280;13818;52.156;5.382;2023-02-04T06:21:40;103227.94;;;7.34;100.00
26043;BME280;13818;52.156;5.382;2023-02-04T06:24:08;103237.66;;;7.33;100.00
26043;BME280;13818;52.156;5.382;2023-02-04T06:26:35;103230.59;;;7.32;100.00
26043;BME280;13818;52.156;5.382;2023-02-04T06:29:01;103240.31;;;7.32;100.00
26043;BME280;13818;52.156;5.382;2023-02-04T06:31:28;103256.19;;;7.26;100.00
26043;BME280;13818;52.156;5.382;2023-02-04T06:33:54;103261.50;;;7.21;100.00
26043;BME280;13818;52.156;5.382;2023-02-04T06:36:21;103259.66;;;7.19;100.00
26043;BME280;13818;52.156;5.382;2023-02-04T06:38:47;103267.63;;;7.17;100.00
26043;BME280;13818;52.156;5.382;2023-02-04T06:41:15;103264.94;;;7.09;100.00
26043;BME280;13818;52.156;5.382;2023-02-04T06:43:41;103267.53;;;7.02;100.00
26043;BME280;13818;52.156;5.382;2023-02-04T06:46:08;103271.97;;;7.06;100.00
26043;BME280;13818;52.156;5.382;2023-02-04T06:48:34;103281.72;;;7.08;100.00
26043;BME280;13818;52.156;5.382;2023-02-04T06:51:01;103285.22;;;7.06;100.00
26043;BME280;13818;52.156;5.382;2023-02-04T06:53:27;103295.84;;;7.04;100.00
26043;BME280;13818;52.156;5.382;2023-02-04T06:55:53;103287.06;;;7.10;100.00
26043;BME280;13818;52.156;5.382;2023-02-04T06:58:21;103301.09;;;6.98;100.00
26043;BME280;13818;52.156;5.382;2023-02-04T07:00:48;103303.84;;;7.10;100.00
26043;BME280;13818;52.156;5.382;2023-02-04T07:03:14;103302.97;;;7.16;100.00
26043;BME280;13818;52.156;5.382;2023-02-04T07:05:41;103305.63;;;7.13;100.00
26043;BME280;13818;52.156;5.382;2023-02-04T07:08:07;103306.53;;;7.18;100.00
26043;BME280;13818;52.156;5.382;2023-02-04T07:10:34;103308.34;;;7.21;100.00
26043;BME280;13818;52.156;5.382;2023-02-04T07:13:00;103313.63;;;7.18;100.00
26043;BME280;13818;52.156;5.382;2023-02-04T07:15:28;103317.25;;;7.29;100.00
26043;BME280;13818;52.156;5.382;2023-02-04T07:17:55;103311.91;;;7.23;100.00
26043;BME280;13818;52.156;5.382;2023-02-04T07:20:22;103312.72;;;7.19;100.00
26043;BME280;13818;52.156;5.382;2023-02-04T07:22:48;103307.41;;;7.17;100.00
26043;BME280;13818;52.156;5.382;2023-02-04T07:25:15;103316.28;;;7.19;100.00
26043;BME280;13818;52.156;5.382;2023-02-04T07:27:42;103318.94;;;7.21;100.00
26043;BME280;13818;52.156;5.382;2023-02-04T07:30:09;103311.03;;;7.28;100.00
26043;BME280;13818;52.156;5.382;2023-02-04T07:32:37;103313.75;;;7.33;100.00
26043;BME280;13818;52.156;5.382;2023-02-04T07:35:04;103322.56;;;7.29;100.00
26043;BME280;13818;52.156;5.382;2023-02-04T07:37:31;103322.50;;;7.24;100.00
26043;BME280;13818;52.156;5.382;2023-02-04T07:39:57;103326.03;;;7.25;100.00
26043;BME280;13818;52.156;5.382;2023-02-04T07:42:24;103342.00;;;7.26;100.00
26043;BME280;13818;52.156;5.382;2023-02-04T07:44:51;103342.81;;;7.21;100.00
26043;BME280;13818;52.156;5.382;2023-02-04T07:47:17;103339.34;;;7.26;100.00
26043;BME280;13818;52.156;5.382;2023-02-04T07:49:45;103342.81;;;7.22;100.00
26043;BME280;13818;52.156;5.382;2023-02-04T07:52:11;103351.69;;;7.21;100.00
26043;BME280;13818;52.156;5.382;2023-02-04T07:54:38;103350.78;;;7.22;100.00
26043;BME280;13818;52.156;5.382;2023-02-04T07:57:04;103355.25;;;7.26;100.00
26043;BME280;13818;52.156;5.382;2023-02-04T07:59:30;103357.00;;;7.23;100.00
26043;BME280;13818;52.156;5.382;2023-02-04T08:01:57;103356.13;;;7.24;100.00
26043;BME280;13818;52.156;5.382;2023-02-04T08:04:24;103363.22;;;7.26;100.00
26043;BME280;13818;52.156;5.382;2023-02-04T08:06:51;103360.59;;;7.29;100.00
26043;BME280;13818;52.156;5.382;2023-02-04T08:09:18;103364.16;;;7.33;100.00
26043;BME280;13818;52.156;5.382;2023-02-04T08:11:44;103367.72;;;7.38;100.00
26043;BME280;13818;52.156;5.382;2023-02-04T08:14:11;103369.50;;;7.39;100.00
26043;BME280;13818;52.156;5.382;2023-02-04T08:16:37;103364.25;;;7.45;100.00
26043;BME280;13818;52.156;5.382;2023-02-04T08:19:04;103380.19;;;7.48;100.00
26043;BME280;13818;52.156;5.382;2023-02-04T08:21:30;103389.94;;;7.51;100.00
26043;BME280;13818;52.156;5.382;2023-02-04T08:23:58;103377.56;;;7.56;100.00
26043;BME280;13818;52.156;5.382;2023-02-04T08:26:24;103387.31;;;7.59;100.00
26043;BME280;13818;52.156;5.382;2023-02-04T08:28:52;103382.00;;;7.57;100.00
26043;BME280;13818;52.156;5.382;2023-02-04T08:31:19;103375.84;;;7.61;100.00
26043;BME280;13818;52.156;5.382;2023-02-04T08:33:45;103385.59;;;7.59;100.00
26043;BME280;13818;52.156;5.382;2023-02-04T08:36:11;103390.94;;;7.70;100.00
26043;BME280;13818;52.156;5.382;2023-02-04T08:38:39;103398.91;;;7.67;100.00
26043;BME280;13818;52.156;5.382;2023-02-04T08:41:07;103406.00;;;7.73;100.00
26043;BME280;13818;52.156;5.382;2023-02-04T08:43:33;103399.88;;;7.77;100.00
26043;BME280;13818;52.156;5.382;2023-02-04T08:46:01;103391.03;;;7.82;100.00
26043;BME280;13818;52.156;5.382;2023-02-04T08:48:27;103399.91;;;7.86;100.00
26043;BME280;13818;52.156;5.382;2023-02-04T08:50:54;103392.84;;;7.88;100.00
26043;BME280;13818;52.156;5.382;2023-02-04T08:53:20;103398.19;;;7.96;100.00
26043;BME280;13818;52.156;5.382;2023-02-04T08:55:47;103401.81;;;8.07;100.00
26043;BME280;13818;52.156;5.382;2023-02-04T08:58:14;103401.81;;;8.10;100.00
26043;BME280;13818;52.156;5.382;2023-02-04T09:00:41;103407.16;;;8.17;100.00
26043;BME280;13818;52.156;5.382;2023-02-04T09:03:07;103408.09;;;8.28;100.00
26043;BME280;13818;52.156;5.382;2023-02-04T09:05:34;103408.09;;;8.29;100.00
26043;BME280;13818;52.156;5.382;2023-02-04T09:08:00;103418.75;;;8.31;100.00
26043;BME280;13818;52.156;5.382;2023-02-04T09:10:27;103412.56;;;8.37;100.00
26043;BME280;13818;52.156;5.382;2023-02-04T09:12:53;103416.13;;;8.39;100.00
26043;BME280;13818;52.156;5.382;2023-02-04T09:15:22;103418.84;;;8.50;100.00
26043;BME280;13818;52.156;5.382;2023-02-04T09:17:49;103423.31;;;8.54;100.00
26043;BME280;13818;52.156;5.382;2023-02-04T09:20:18;103421.56;;;8.57;100.00
26043;BME280;13818;52.156;5.382;2023-02-04T09:22:45;103414.47;;;8.62;100.00
26043;BME280;13818;52.156;5.382;2023-02-04T09:25:12;103420.69;;;8.68;100.00
26043;BME280;13818;52.156;5.382;2023-02-04T09:27:38;103424.25;;;8.73;100.00
26043;BME280;13818;52.156;5.382;2023-02-04T09:30:05;103424.28;;;8.82;100.00
26043;BME280;13818;52.156;5.382;2023-02-04T09:32:33;103422.53;;;8.83;100.00
26043;BME280;13818;52.156;5.382;2023-02-04T09:35:00;103422.53;;;8.92;100.00
26043;BME280;13818;52.156;5.382;2023-02-04T09:37:26;103418.09;;;8.99;100.00
26043;BME280;13818;52.156;5.382;2023-02-04T09:39:53;103426.97;;;8.98;100.00
26043;BME280;13818;52.156;5.382;2023-02-04T09:42:22;103420.78;;;8.94;100.00
26043;BME280;13818;52.156;5.382;2023-02-04T09:44:50;103422.56;;;9.04;100.00
26043;BME280;13818;52.156;5.382;2023-02-04T09:47:20;103424.31;;;9.10;100.00
26043;BME280;13818;52.156;5.382;2023-02-04T09:49:50;103427.00;;;9.24;100.00
26043;BME280;13818;52.156;5.382;2023-02-04T09:52:17;103426.13;;;9.25;100.00
26043;BME280;13818;52.156;5.382;2023-02-04T09:54:44;103419.91;;;9.29;100.00
26043;BME280;13818;52.156;5.382;2023-02-04T09:57:14;103435.88;;;9.35;100.00
26043;BME280;13818;52.156;5.382;2023-02-04T09:59:41;103427.03;;;9.47;100.00
26043;BME280;13818;52.156;5.382;2023-02-04T10:02:17;103436.75;;;9.54;100.00
26043;BME280;13818;52.156;5.382;2023-02-04T10:04:45;103438.53;;;9.69;100.00
26043;BME280;13818;52.156;5.382;2023-02-04T10:07:16;103445.63;;;9.78;100.00
26043;BME280;13818;52.156;5.382;2023-02-04T10:09:46;103443.88;;;9.74;100.00
26043;BME280;13818;52.156;5.382;2023-02-04T10:12:13;103448.31;;;9.75;100.00
26043;BME280;13818;52.156;5.382;2023-02-04T10:14:40;103446.53;;;9.85;100.00
26043;BME280;13818;52.156;5.382;2023-02-04T10:17:07;103444.72;;;9.96;100.00
26043;BME280;13818;52.156;5.382;2023-02-04T10:19:35;103439.38;;;10.10;100.00
26043;BME280;13818;52.156;5.382;2023-02-04T10:22:02;103439.34;;;10.15;100.00
26043;BME280;13818;52.156;5.382;2023-02-04T10:24:30;103450.06;;;9.87;100.00
26043;BME280;13818;52.156;5.382;2023-02-04T10:27:08;103444.69;;;10.07;100.00
26043;BME280;13818;52.156;5.382;2023-02-04T10:29:35;103432.16;;;10.34;100.00
26043;BME280;13818;52.156;5.382;2023-02-04T10:32:02;103437.53;;;10.38;100.00
26043;BME280;13818;52.156;5.382;2023-02-04T10:34:32;103440.16;;;10.48;100.00
26043;BME280;13818;52.156;5.382;2023-02-04T10:36:59;103441.03;;;10.53;100.00
26043;BME280;13818;52.156;5.382;2023-02-04T10:39:41;103443.69;;;10.54;100.00
26043;BME280;13818;52.156;5.382;2023-02-04T10:42:19;103442.84;;;10.38;100.00
26043;BME280;13818;52.156;5.382;2023-02-04T10:44:47;103449.97;;;10.44;100.00
26043;BME280;13818;52.156;5.382;2023-02-04T10:47:15;103450.75;;;10.65;100.00
26043;BME280;13818;52.156;5.382;2023-02-04T10:49:51;103445.41;;;10.66;100.00
26043;BME280;13818;52.156;5.382;2023-02-04T10:52:19;103444.50;;;10.69;100.00
26043;BME280;13818;52.156;5.382;2023-02-04T10:54:48;103443.63;;;10.67;100.00
26043;BME280;13818;52.156;5.382;2023-02-04T10:57:17;103444.44;;;10.77;100.00
26043;BME280;13818;52.156;5.382;2023-02-04T10:59:45;103444.47;;;10.75;100.00
26043;BME280;13818;52.156;5.382;2023-02-04T11:02:40;103438.28;;;10.64;100.00
26043;BME280;13818;52.156;5.382;2023-02-04T11:05:13;103444.50;;;10.67;100.00
26043;BME280;13818;52.156;5.382;2023-02-04T11:07:41;103448.94;;;10.74;100.00
26043;BME280;13818;52.156;5.382;2023-02-04T11:10:17;103449.00;;;10.61;100.00
26043;BME280;13818;52.156;5.382;2023-02-04T11:12:46;103458.78;;;10.58;100.00
26043;BME280;13818;52.156;5.382;2023-02-04T11:15:38;103451.63;;;10.64;100.00
26043;BME280;13818;52.156;5.382;2023-02-04T11:18:07;103449.78;;;10.80;100.00
26043;BME280;13818;52.156;5.382;2023-02-04T11:20:34;103442.66;;;10.79;100.00
26043;BME280;13818;52.156;5.382;2023-02-04T11:23:15;103443.56;;;10.81;100.00
26043;BME280;13818;52.156;5.382;2023-02-04T11:25:43;103440.03;;;10.77;100.00
26043;BME280;13818;52.156;5.382;2023-02-04T11:28:13;103441.81;;;10.73;100.00
26043;BME280;13818;52.156;5.382;2023-02-04T11:30:40;103436.50;;;10.67;100.00
26043;BME280;13818;52.156;5.382;2023-02-04T11:33:21;103442.72;;;10.71;100.00
26043;BME280;13818;52.156;5.382;2023-02-04T11:35:59;103438.31;;;10.61;100.00
26043;BME280;13818;52.156;5.382;2023-02-04T11:38:27;103444.50;;;10.70;100.00
26043;BME280;13818;52.156;5.382;2023-02-04T11:40:57;103437.34;;;10.77;100.00
26043;BME280;13818;52.156;5.382;2023-02-04T11:43:25;103434.63;;;10.86;100.00
26043;BME280;13818;52.156;5.382;2023-02-04T11:46:03;103426.66;;;10.82;100.00
26043;BME280;13818;52.156;5.382;2023-02-04T11:48:31;103429.34;;;10.77;100.00
26043;BME280;13818;52.156;5.382;2023-02-04T11:51:00;103431.03;;;10.92;100.00
26043;BME280;13818;52.156;5.382;2023-02-04T11:53:28;103422.94;;;11.03;100.00
26043;BME280;13818;52.156;5.382;2023-02-04T11:55:57;103436.34;;;10.95;100.00
26043;BME280;13818;52.156;5.382;2023-02-04T11:58:25;103430.19;;;10.87;100.00
26043;BME280;13818;52.156;5.382;2023-02-04T12:00:55;103432.84;;;10.88;100.00
26043;BME280;13818;52.156;5.382;2023-02-04T12:03:24;103435.44;;;10.98;100.00
26043;BME280;13818;52.156;5.382;2023-02-04T12:05:52;103432.75;;;11.01;100.00
26043;BME280;13818;52.156;5.382;2023-02-04T12:08:31;103432.84;;;10.85;100.00
26043;BME280;13818;52.156;5.382;2023-02-04T12:11:03;103429.19;;;11.03;100.00
26043;BME280;13818;52.156;5.382;2023-02-04T12:13:30;103441.50;;;11.21;100.00
26043;BME280;13818;52.156;5.382;2023-02-04T12:15:58;103434.38;;;11.22;100.00
26043;BME280;13818;52.156;5.382;2023-02-04T12:18:26;103440.69;;;11.12;100.00
26043;BME280;13818;52.156;5.382;2023-02-04T12:20:53;103443.28;;;11.19;100.00
26043;BME280;13818;52.156;5.382;2023-02-04T12:23:20;103445.91;;;11.29;100.00
26043;BME280;13818;52.156;5.382;2023-02-04T12:25:47;103436.97;;;11.36;100.00
26043;BME280;13818;52.156;5.382;2023-02-04T12:28:15;103448.53;;;11.36;100.00
26043;BME280;13818;52.156;5.382;2023-02-04T12:30:41;103446.78;;;11.32;100.00
26043;BME280;13818;52.156;5.382;2023-02-04T12:33:08;103448.53;;;11.32;100.00
26043;BME280;13818;52.156;5.382;2023-02-04T12:35:35;103451.13;;;11.44;100.00
26043;BME280;13818;52.156;5.382;2023-02-04T12:38:01;103443.94;;;11.51;100.00
26043;BME280;13818;52.156;5.382;2023-02-04T12:40:28;103439.47;;;11.54;100.00
26043;BME280;13818;52.156;5.382;2023-02-04T12:42:55;103442.19;;;11.47;100.00
26043;BME280;13818;52.156;5.382;2023-02-04T12:45:23;103436.94;;;11.39;100.00
26043;BME280;13818;52.156;5.382;2023-02-04T12:47:49;103438.72;;;11.35;100.00
26043;BME280;13818;52.156;5.382;2023-02-04T12:50:17;103445.06;;;11.22;100.00